CheckWX is a tool to help pilots better visualize weather data.  It is not intended as a substitute for an official pre-flight weather briefing.

02:35:49 UTC

PLCH METAR
Cassidy International Airport
Banana, Kiribati
Current

36 mins ago

PLCH 210200Z 12010KT 9999 SCT020 30/25 Q1006
Observed
Feb-21 @ 02:00 UTC
Wind
  • 120° at 10 KTS
Visibility
10,000+ meters
Flight Rules
VFR
Cloud Levels
  • Scattered at 2,000' AGL
Temperature
30°C / 86°F
Dewpoint
25°C / 77°F
Heat Index
36°C / 97°F
Humidity
75%
Altimeter
29.7" Hg
Pressure
1005.92 hPa
Previous

2 hours ago

PLCH 210100Z 11009KT 9999 SCT020 31/24 Q1007
Observed
Feb-21 @ 01:00 UTC
Wind
  • 110° at 9 KTS
Visibility
10,000+ meters
Flight Rules
VFR
Cloud Levels
  • Scattered at 2,000' AGL
Temperature
31°C / 88°F
Dewpoint
24°C / 75°F
Heat Index
37°C / 98°F
Humidity
66%
Altimeter
29.73" Hg
Pressure
1006.92 hPa
Previous

3 hours ago

PLCH 210000Z 11008KT 9999 FEW020 31/24 Q1007
Observed
Feb-21 @ 00:00 UTC
Wind
  • 110° at 8 KTS
Visibility
10,000+ meters
Flight Rules
VFR
Cloud Levels
  • Few at 2,000' AGL
Temperature
31°C / 88°F
Dewpoint
24°C / 75°F
Heat Index
37°C / 98°F
Humidity
66%
Altimeter
29.73" Hg
Pressure
1006.92 hPa